地図

経路データ

SID SEASON NUMBER BASIN SUBBASIN NAME ISO_TIME NATURE LAT LON WMO_WIND WMO_PRES WMO_AGENCY TRACK_TYPE DIST2LAND LANDFALL IFLAG USA_AGENCY USA_ATCF_ID USA_LAT USA_LON USA_RECORD USA_STATUS USA_WIND USA_PRES USA_SSHS USA_R34_NE USA_R34_SE USA_R34_SW USA_R34_NW USA_R50_NE USA_R50_SE USA_R50_SW USA_R50_NW USA_R64_NE USA_R64_SE USA_R64_SW USA_R64_NW USA_POCI USA_ROCI USA_RMW USA_EYE TOKYO_LAT TOKYO_LON TOKYO_GRADE TOKYO_WIND TOKYO_PRES TOKYO_R50_DIR TOKYO_R50_LONG TOKYO_R50_SHORT TOKYO_R30_DIR TOKYO_R30_LONG TOKYO_R30_SHORT TOKYO_LAND CMA_LAT CMA_LON CMA_CAT CMA_WIND CMA_PRES HKO_LAT HKO_LON HKO_CAT HKO_WIND HKO_PRES NEWDELHI_LAT NEWDELHI_LON NEWDELHI_GRADE NEWDELHI_WIND NEWDELHI_PRES NEWDELHI_CI NEWDELHI_DP NEWDELHI_POCI REUNION_LAT REUNION_LON REUNION_TYPE REUNION_WIND REUNION_PRES REUNION_TNUM REUNION_CI REUNION_RMW REUNION_R34_NE REUNION_R34_SE REUNION_R34_SW REUNION_R34_NW REUNION_R50_NE REUNION_R50_SE REUNION_R50_SW REUNION_R50_NW REUNION_R64_NE REUNION_R64_SE REUNION_R64_SW REUNION_R64_NW BOM_LAT BOM_LON BOM_TYPE BOM_WIND BOM_PRES BOM_TNUM BOM_CI BOM_RMW BOM_R34_NE BOM_R34_SE BOM_R34_SW BOM_R34_NW BOM_R50_NE BOM_R50_SE BOM_R50_SW BOM_R50_NW BOM_R64_NE BOM_R64_SE BOM_R64_SW BOM_R64_NW BOM_ROCI BOM_POCI BOM_EYE BOM_POS_METHOD BOM_PRES_METHOD NADI_LAT NADI_LON NADI_CAT NADI_WIND NADI_PRES WELLINGTON_LAT WELLINGTON_LON WELLINGTON_WIND WELLINGTON_PRES DS824_LAT DS824_LON DS824_STAGE DS824_WIND DS824_PRES TD9636_LAT TD9636_LON TD9636_STAGE TD9636_WIND TD9636_PRES TD9635_LAT TD9635_LON TD9635_WIND TD9635_PRES TD9635_ROCI NEUMANN_LAT NEUMANN_LON NEUMANN_CLASS NEUMANN_WIND NEUMANN_PRES MLC_LAT MLC_LON MLC_CLASS MLC_WIND MLC_PRES USA_GUST BOM_GUST BOM_GUST_PER REUNION_GUST REUNION_GUST_PER USA_SEAHGT USA_SEARAD_NE USA_SEARAD_SE USA_SEARAD_SW USA_SEARAD_NW STORM_SPEED STORM_DIR
1887255N14316 1887 46 NA NA NOT_NAMED 1887-09-12 00:00:00 TS 14.0000 -44.0000 main 1349 1343 _____________O -1 14.0000 -44.0000 TS 35 13 309
1887255N14316 1887 46 NA NA NOT_NAMED 1887-09-12 03:00:00 TS 14.3952 -44.4997 main 1354 1348 _____________P -1 14.3952 -44.4997 TS 37 13 310
1887255N14316 1887 46 NA NA NOT_NAMED 1887-09-12 06:00:00 TS 14.8000 -45.0000 main 1359 1352 _____________O -1 14.8000 -45.0000 TS 40 13 311
1887255N14316 1887 46 NA NA NOT_NAMED 1887-09-12 09:00:00 TS 15.2220 -45.5002 main 1362 1362 _____________P -1 15.2220 -45.5002 TS 13 312
1887255N14316 1887 46 NA NA NOT_NAMED 1887-09-12 12:00:00 TS 15.6574 -46.0003 main 1379 1373 _____________P -1 15.6574 -46.0003 TS 13 312
1887255N14316 1887 46 NA NA NOT_NAMED 1887-09-12 15:00:00 TS 16.0995 -46.5004 main 1390 1385 _____________P -1 16.0995 -46.5004 TS 13 313
1887255N14316 1887 46 NA NA NOT_NAMED 1887-09-12 18:00:00 TS 16.5418 -47.0004 main 1404 1404 _____________P -1 16.5418 -47.0004 TS 13 312
1887255N14316 1887 46 NA NA NOT_NAMED 1887-09-12 21:00:00 TS 16.9775 -47.5003 main 1431 1427 _____________P -1 16.9775 -47.5003 TS 13 312
1887255N14316 1887 46 NA NA NOT_NAMED 1887-09-13 00:00:00 TS 17.4000 -48.0000 main 1452 1448 _____________O -1 17.4000 -48.0000 TS 45 13 311
1887255N14316 1887 46 NA NA NOT_NAMED 1887-09-13 03:00:00 TS 17.8022 -48.5003 main 1469 1464 _____________P -1 17.8022 -48.5003 TS 47 12 310
1887255N14316 1887 46 NA NA NOT_NAMED 1887-09-13 06:00:00 TS 18.2000 -49.0000 main 1488 1484 _____________O -1 18.2000 -49.0000 TS 50 12 310
1887255N14316 1887 46 NA NA NOT_NAMED 1887-09-13 09:00:00 TS 18.5999 -49.5002 main 1510 1503 _____________P -1 18.5999 -49.5002 TS 55 12 310
1887255N14316 1887 46 NA NA NOT_NAMED 1887-09-13 12:00:00 TS 19.0000 -50.0000 main 1503 1489 _____________O -1 19.0000 -50.0000 TS 60 12 310
1887255N14316 1887 46 NA NA NOT_NAMED 1887-09-13 15:00:00 TS 19.4074 -50.5002 main 1489 1478 _____________P -1 19.4074 -50.5002 TS 60 12 310
1887255N14316 1887 46 NA NA NOT_NAMED 1887-09-13 18:00:00 TS 19.8000 -51.0000 main 1478 1463 _____________O -1 19.8000 -51.0000 TS 60 12 308
1887255N14316 1887 46 NA NA NOT_NAMED 1887-09-13 21:00:00 TS 20.1499 -51.5004 main 1463 1444 _____________P -1 20.1499 -51.5004 TS 62 12 307
1887255N14316 1887 46 NA NA NOT_NAMED 1887-09-14 00:00:00 TS 20.5000 -52.0000 main 1444 1399 _____________O -1 20.5000 -52.0000 HU 65 12 309
1887255N14316 1887 46 NA NA NOT_NAMED 1887-09-14 03:00:00 TS 20.8999 -52.5001 main 1399 1356 _____________P -1 20.8999 -52.5001 HU 65 12 311
1887255N14316 1887 46 NA NA NOT_NAMED 1887-09-14 06:00:00 TS 21.3000 -53.0000 main 1356 1313 _____________O -1 21.3000 -53.0000 HU 65 12 307
1887255N14316 1887 46 NA NA NOT_NAMED 1887-09-14 09:00:00 TS 21.6125 -53.5156 main 1313 1275 _____________P -1 21.6125 -53.5156 HU 65 12 307
1887255N14316 1887 46 NA NA NOT_NAMED 1887-09-14 12:00:00 TS 22.0000 -54.0000 main 1275 1253 _____________O -1 22.0000 -54.0000 HU 65 13 320
1887255N14316 1887 46 NA NA NOT_NAMED 1887-09-14 15:00:00 TS 22.6123 -54.4225 main 1256 1251 _____________P -1 22.6123 -54.4225 HU 65 13 342
1887255N14316 1887 46 NA NA NOT_NAMED 1887-09-14 18:00:00 TS 23.2000 -54.4333 35 hurdat_atl main 1281 1280 O____________O hurdat_atl AL101887 23.0000 -53.7000 TS 35 0 23.3000 -54.8000 HU 65 11 356
1887255N14316 1887 46 NA NA NOT_NAMED 1887-09-14 21:00:00 TS 23.7449 -54.5117 main 1294 1294 P____________P AL101887 23.5899 -53.8728 TS 37 0 23.8998 -55.1507 HU 65 12 350
1887255N14316 1887 46 NA NA NOT_NAMED 1887-09-15 00:00:00 TS 24.3800 -54.6600 40 hurdat_atl main 1311 1311 O____________O hurdat_atl AL101887 24.3000 -54.1000 TS 40 0 24.5000 -55.5000 HU 65 15 346
1887255N14316 1887 46 NA NA NOT_NAMED 1887-09-15 03:00:00 TS 25.1868 -54.9046 main 1339 1337 P____________P AL101887 25.2052 -54.4068 TS 40 0 25.1500 -55.9001 HU 65 18 343
1887255N14316 1887 46 NA NA NOT_NAMED 1887-09-15 06:00:00 TS 26.0667 -55.2333 40 hurdat_atl main 1372 1370 O____________O hurdat_atl AL101887 26.2000 -54.7000 TS 40 0 25.8000 -56.3000 HU 65 18 343
1887255N14316 1887 46 NA NA NOT_NAMED 1887-09-15 09:00:00 TS 26.9149 -55.4805 main 1404 1404 P____________P AL101887 27.1873 -54.8731 TS 42 0 26.3701 -56.6951 HU 65 17 347
1887255N14316 1887 46 NA NA NOT_NAMED 1887-09-15 12:00:00 TS 27.7333 -55.6667 45 hurdat_atl main 1449 1449 O____________O hurdat_atl AL101887 28.1000 -55.0000 TS 45 0 27.0000 -57.0000 HU 65 16 349
1887255N14316 1887 46 NA NA NOT_NAMED 1887-09-15 15:00:00 TS 28.5033 -55.8325 main 1506 1506 P____________P AL101887 28.8450 -55.1577 TS 47 0 27.8198 -57.1821 HU 65 15 351
1887255N14316 1887 46 NA NA NOT_NAMED 1887-09-15 18:00:00 TS 29.2333 -55.9333 50 hurdat_atl main 1557 1557 O____________O hurdat_atl AL101887 29.5000 -55.3000 TS 50 0 28.7000 -57.2000 HU 65 14 355
1887255N14316 1887 46 NA NA NOT_NAMED 1887-09-15 21:00:00 TS 29.9207 -55.9782 main 1610 1610 P____________P AL101887 30.1275 -55.4152 TS 52 0 29.5071 -57.1042 HU 65 14 0
1887255N14316 1887 46 NA NA NOT_NAMED 1887-09-16 00:00:00 TS 30.6333 -55.9333 55 hurdat_atl main 1657 1583 O____________O hurdat_atl AL101887 30.8000 -55.5000 TS 55 0 30.3000 -56.8000 HU 65 15 5
1887255N14316 1887 46 NA NA NOT_NAMED 1887-09-16 03:00:00 TS 31.4568 -55.8090 main 1573 1506 P____________P AL101887 31.6350 -55.5869 TS 57 0 31.1005 -56.2531 HU 65 17 10
1887255N14316 1887 46 NA NA NOT_NAMED 1887-09-16 06:00:00 TS 32.3000 -55.6000 60 hurdat_atl main 1506 1442 O____________O hurdat_atl AL101887 32.5000 -55.6000 TS 60 0 31.9000 -55.6000 HU 65 17 13
1887255N14316 1887 46 NA NA NOT_NAMED 1887-09-16 09:00:00 TS 33.0912 -55.3514 main 1432 1367 P____________P AL101887 33.2725 -55.4732 TS 62 0 32.7285 -55.1078 HU 65 16 15
1887255N14316 1887 46 NA NA NOT_NAMED 1887-09-16 12:00:00 TS 33.8636 -55.0818 65 hurdat_atl main 1357 1301 O____________O hurdat_atl AL101887 34.0000 -55.3000 HU 65 1 33.5000 -54.5000 HU 65 15 15
1887255N14316 1887 46 NA NA NOT_NAMED 1887-09-16 15:00:00 TS 34.5576 -54.8786 main 1291 1222 P____________P AL101887 34.6624 -55.2064 HU 67 1 34.1429 -53.5961 HU 65 15 9
1887255N14316 1887 46 NA NA NOT_NAMED 1887-09-16 18:00:00 TS 35.3222 -54.8111 70 hurdat_atl main 1222 1117 O____________O hurdat_atl AL101887 35.4000 -55.1000 HU 70 1 34.7000 -52.5000 HU 65 18 359
1887255N14316 1887 46 NA NA NOT_NAMED 1887-09-16 21:00:00 TS 36.3625 -54.9297 main 1107 1027 P_____________ AL101887 36.3625 -54.9297 HU 70 1 HU 21 2
1887255N14316 1887 46 NA NA NOT_NAMED 1887-09-17 00:00:00 TS 37.4000 -54.7000 70 hurdat_atl main 1017 925 O_____________ hurdat_atl AL101887 37.4000 -54.7000 HU 70 1 21 12
1887255N14316 1887 46 NA NA NOT_NAMED 1887-09-17 03:00:00 TS 38.3725 -54.4149 main 914 812 P_____________ AL101887 38.3725 -54.4149 HU 70 1 20 14
1887255N14316 1887 46 NA NA NOT_NAMED 1887-09-17 06:00:00 TS 39.3000 -54.1000 70 hurdat_atl main 812 722 O_____________ hurdat_atl AL101887 39.3000 -54.1000 HU 70 1 18 15
1887255N14316 1887 46 NA NA NOT_NAMED 1887-09-17 09:00:00 TS 40.1573 -53.8134 main 711 622 P_____________ AL101887 40.1573 -53.8134 HU 70 1 18 15
1887255N14316 1887 46 NA NA NOT_NAMED 1887-09-17 12:00:00 TS 41.0000 -53.5000 70 hurdat_atl main 622 533 O_____________ hurdat_atl AL101887 41.0000 -53.5000 HU 70 1 17 17
1887255N14316 1887 46 NA NA NOT_NAMED 1887-09-17 15:00:00 TS 41.8097 -53.1481 main 533 434 P_____________ AL101887 41.8097 -53.1481 HU 70 1 19 18
1887255N14316 1887 46 NA NA NOT_NAMED 1887-09-17 18:00:00 TS 42.8000 -52.7000 70 hurdat_atl main 424 290 O_____________ hurdat_atl AL101887 42.8000 -52.7000 HU 70 1 25 18
1887255N14316 1887 46 NA NA NOT_NAMED 1887-09-17 21:00:00 TS 44.2124 -52.1114 main 280 177 P_____________ AL101887 44.2124 -52.1114 HU 70 1 30 18
1887255N14316 1887 46 NA NA NOT_NAMED 1887-09-18 00:00:00 TS 45.7000 -51.4000 70 983 hurdat_atl main 170 154 O_____________ hurdat_atl AL101887 45.7000 -51.4000 HU 70 983 1 29 21
1887255N14316 1887 46 NA NA NOT_NAMED 1887-09-18 03:00:00 TS 46.8795 -50.6321 main 164 163 P_____________ AL101887 46.8795 -50.6321 HU 67 1 25 25
1887255N14316 1887 46 NA NA NOT_NAMED 1887-09-18 06:00:00 TS 48.0000 -49.8000 65 hurdat_atl main 215 215 O_____________ hurdat_atl AL101887 48.0000 -49.8000 HU 65 1 26 25
1887255N14316 1887 46 NA NA NOT_NAMED 1887-09-18 09:00:00 TS 49.2236 -49.0288 main 301 301 P_____________ AL101887 49.2236 -49.0288 HU 62 0 28 25
1887255N14316 1887 46 NA NA NOT_NAMED 1887-09-18 12:00:00 ET 50.5000 -48.0000 60 hurdat_atl main 413 413 O_____________ hurdat_atl AL101887 50.5000 -48.0000 EX 60 -4 31 33
1887255N14316 1887 46 NA NA NOT_NAMED 1887-09-18 15:00:00 ET 51.8040 -46.4447 main 570 570 P_____________ AL101887 51.8040 -46.4447 EX 57 -4 34 40
1887255N14316 1887 46 NA NA NOT_NAMED 1887-09-18 18:00:00 ET 53.1000 -44.5000 55 hurdat_atl main 746 O_____________ hurdat_atl AL101887 53.1000 -44.5000 EX 55 -4 35 42

IBTrACS Databaseについて

本データベースは、米国NOAAが公開する1842年以降の世界の熱帯低気圧のベストトラックデータアーカイブInternational Best Track Archive for Climate Stewardship (IBTrACS)を、ウェブで閲覧しやすい形式に変換したものです。

最終更新日:2021-10-08